Alsace — PB4786 — position and weather

sailwx.info

Track history (hours):
 
Tides and Currents Weather Stations Pressure Air Temp Water Temp Dewpoint Dewpoint Depression Visibility Wind Speed Wind Dir Waves Ship Positions

Alsace

Last reported at 2015-May-24 19:31 UTC. Time now 2015-May-24 21:20 UTC.
Position N 51°52' E 005°56'.

Length 178 m.

Type: Ship. MMSI: 244660556.

Date/timePositionNaut miles runAvg speedWind from/ knotsBaromVisibWave heightAir tempDewpointWater temp
2015-May-24 19:31N 51°52' E 005°56'5 5.4
2015-May-24 18:32N 51°53' E 005°48'31 6.0
2015-May-24 13:23N 51°49' E 004°58'5 5.7
2015-May-24 12:32N 51°48' E 004°50'7 6.9
2015-May-24 11:33N 51°44' E 004°42'9 8.4
2015-May-24 10:31N 51°42' E 004°28'3 3.0
2015-May-24 09:33N 51°41' E 004°24'7 7.1
2015-May-24 08:33N 51°38' E 004°13'7 7.3
2015-May-24 07:33N 51°30' E 004°13'4 4.0
2015-May-24 06:33N 51°26' E 004°14'4 3.6
2015-May-24 05:34N 51°23' E 004°15'7 7.1
2015-May-24 04:33N 51°16' E 004°20'3 2.8
2015-May-24 03:34N 51°18' E 004°16'1 0.8
2015-May-24 02:33N 51°17' E 004°16'0 0.0
2015-May-24 01:33N 51°17' E 004°16'0 0.0
2015-May-24 00:32N 51°17' E 004°16'0 0.0
2015-May-23 23:30N 51°17' E 004°16'1 0.6
2015-May-23 22:33N 51°18' E 004°16'0 0.0
2015-May-23 21:30N 51°18' E 004°16'0 0.0
2015-May-23 20:33N 51°18' E 004°16'0 0.0
2015-May-23 19:34N 51°18' E 004°16'0 0.0
2015-May-23 18:32N 51°18' E 004°16'0 0.4
2015-May-23 17:31N 51°18' E 004°16'0 0.0
2015-May-23 16:33N 51°18' E 004°16'0 0.0
2015-May-23 15:33N 51°18' E 004°16'1 1.2
2015-May-23 14:33N 51°19' E 004°17'0 0.2
2015-May-23 13:33N 51°19' E 004°17'2 1.7
2015-May-23 12:34N 51°20' E 004°16'0 0.5
2015-May-23 11:33N 51°21' E 004°16'1 0.9
2015-May-23 10:33N 51°21' E 004°17'2 2.3
2015-May-23 09:34N 51°20' E 004°20'0 0.0
2015-May-23 08:33N 51°20' E 004°20'0 0.0
2015-May-23 07:33N 51°20' E 004°20'1 0.5
2015-May-23 06:33N 51°19' E 004°20'0 0.0
2015-May-23 05:33N 51°19' E 004°20'1 0.5
2015-May-23 04:34N 51°19' E 004°19'4 3.9
2015-May-23 03:33N 51°23' E 004°16'4 4.1
2015-May-23 02:27N 51°27' E 004°14'0 0.3
2015-May-23 01:33N 51°27' E 004°14'0 0.0
2015-May-23 00:33N 51°27' E 004°14'0 0.0
2015-May-22 23:33N 51°27' E 004°14'8 7.4
2015-May-22 22:32N 51°35' E 004°13'7 6.9
2015-May-22 21:28N 51°40' E 004°21'9 4.8
2015-May-22 19:33N 51°43' E 004°36'8 6.9
2015-May-22 18:20N 51°48' E 004°46'18 9.3
2015-May-22 16:26N 51°49' E 005°15'17 9.1
2015-May-22 14:32N 51°54' E 005°42'5 5.0
2015-May-22 13:28N 51°52' E 005°50'0 0.0
2015-May-22 12:31N 51°52' E 005°50'0 0.0
2015-May-22 11:06N 51°52' E 005°50'0 0.0
2015-May-22 10:17N 51°52' E 005°50'0 0.0
2015-May-22 08:20N 51°52' E 005°50'0 0.0
2015-May-22 07:29N 51°52' E 005°50'0 0.0
2015-May-22 06:22N 51°52' E 005°50'0 0.0
2015-May-22 05:13N 51°52' E 005°50'0 0.0
2015-May-22 04:31N 51°52' E 005°50'0 0.0
2015-May-22 03:26N 51°52' E 005°50'0 0.0
2015-May-22 02:32N 51°52' E 005°50'0 0.0
2015-May-22 01:33N 51°52' E 005°50'47 5.9
2015-May-21 17:31N 51°19' E 006°44'20 6.4
2015-May-21 14:23N 51°01' E 006°58'7 7.6
2015-May-21 13:25N 50°54' E 007°02'107 7.1
2015-May-20 22:19N 49°23' E 008°30'6 7.3
2015-May-20 21:28N 49°17' E 008°27'9 9.3
2015-May-20 20:33N 49°09' E 008°22'1010.2
2015-May-20 19:33N 48°59' E 008°17'16 7.1
2015-May-20 17:19N 48°47' E 008°02'6 7.9
2015-May-20 16:33N 48°42' E 007°56'65 2.4
2015-May-19 13:12N 47°39' E 007°32'4 5.7
2015-May-19 12:34N 47°36' E 007°35'1 1.3
2015-May-19 11:33N 47°35' E 007°35'0 0.1
2015-May-19 10:30N 47°35' E 007°35'0 0.1
2015-May-19 09:33N 47°35' E 007°35'0 0.1
2015-May-19 08:33N 47°35' E 007°35'0 0.1
2015-May-19 07:33N 47°35' E 007°35'0 0.0
2015-May-19 06:33N 47°35' E 007°35'0 0.0
2015-May-19 05:33N 47°35' E 007°35'0 0.0
2015-May-19 04:32N 47°35' E 007°35'0 0.0
2015-May-19 03:33N 47°35' E 007°35'0 0.0
2015-May-19 02:33N 47°35' E 007°35'1 0.8
2015-May-19 01:33N 47°36' E 007°36'4 4.3
2015-May-19 00:33N 47°39' E 007°32'63 1.8
2015-May-17 12:28N 48°41' E 007°54'1 1.1
2015-May-17 11:33N 48°41' E 007°55'5 4.4
2015-May-17 10:29N 48°46' E 007°58'5 5.6
2015-May-17 09:33N 48°48' E 008°05'2 2.4
2015-May-17 08:33N 48°50' E 008°07'3 3.5
2015-May-17 07:33N 48°54' E 008°08'4 3.5
2015-May-17 06:33N 48°57' E 008°11'4 3.7
2015-May-17 05:33N 48°59' E 008°16'4 4.0
2015-May-17 04:33N 49°02' E 008°18'4 4.2
2015-May-17 03:34N 49°06' E 008°22'4 4.2
2015-May-17 02:33N 49°10' E 008°22'4 4.2
2015-May-17 01:33N 49°14' E 008°24'5 4.6
2015-May-17 00:33N 49°17' E 008°29'5 3.8
2015-May-16 23:18N 49°22' E 008°30'104 4.0
2015-May-15 21:20N 50°49' E 007°02'2 3.0
2015-May-15 20:33N 50°51' E 007°00'3 2.4
2015-May-15 19:30N 50°54' E 007°00'4 4.3
2015-May-15 18:32N 50°58' E 006°60'13 4.2
2015-May-15 15:27N 51°10' E 006°51'2 2.5
2015-May-15 14:33N 51°11' E 006°48'4 4.0
2015-May-15 13:33N 51°14' E 006°44'20 3.3
2015-May-15 07:33N 51°33' E 006°41'4 3.6
2015-May-15 06:33N 51°35' E 006°36'19 4.4
2015-May-15 02:14N 51°49' E 006°16'15 4.9
2015-May-14 23:06N 51°51' E 005°51'1 1.9
2015-May-14 22:32N 51°52' E 005°50'  
Track history (hours):
 
Tides and Currents Weather Stations Pressure Air Temp Water Temp Dewpoint Dewpoint Depression Visibility Wind Speed Wind Dir Waves Ship Positions

Alsace

Last reported at 2015-May-24 19:31 UTC. Time now 2015-May-24 21:20 UTC.
Position N 51°52' E 005°56'.

Length 178 m.

Type: Ship. MMSI: 244660556.

Date/timePositionNaut miles runAvg speedWind from/ knotsBaromVisibWave heightAir tempDewpointWater temp
2015-May-24 19:31N 51°52' E 005°56'5 5.4
2015-May-24 18:32N 51°53' E 005°48'31 6.0
2015-May-24 13:23N 51°49' E 004°58'5 5.7
2015-May-24 12:32N 51°48' E 004°50'7 6.9
2015-May-24 11:33N 51°44' E 004°42'9 8.4
2015-May-24 10:31N 51°42' E 004°28'3 3.0
2015-May-24 09:33N 51°41' E 004°24'7 7.1
2015-May-24 08:33N 51°38' E 004°13'7 7.3
2015-May-24 07:33N 51°30' E 004°13'4 4.0
2015-May-24 06:33N 51°26' E 004°14'4 3.6
2015-May-24 05:34N 51°23' E 004°15'7 7.1
2015-May-24 04:33N 51°16' E 004°20'3 2.8
2015-May-24 03:34N 51°18' E 004°16'1 0.8
2015-May-24 02:33N 51°17' E 004°16'0 0.0
2015-May-24 01:33N 51°17' E 004°16'0 0.0
2015-May-24 00:32N 51°17' E 004°16'0 0.0
2015-May-23 23:30N 51°17' E 004°16'1 0.6
2015-May-23 22:33N 51°18' E 004°16'0 0.0
2015-May-23 21:30N 51°18' E 004°16'0 0.0
2015-May-23 20:33N 51°18' E 004°16'0 0.0
2015-May-23 19:34N 51°18' E 004°16'0 0.0
2015-May-23 18:32N 51°18' E 004°16'0 0.4
2015-May-23 17:31N 51°18' E 004°16'0 0.0
2015-May-23 16:33N 51°18' E 004°16'0 0.0
2015-May-23 15:33N 51°18' E 004°16'1 1.2
2015-May-23 14:33N 51°19' E 004°17'0 0.2
2015-May-23 13:33N 51°19' E 004°17'2 1.7
2015-May-23 12:34N 51°20' E 004°16'0 0.5
2015-May-23 11:33N 51°21' E 004°16'1 0.9
2015-May-23 10:33N 51°21' E 004°17'2 2.3
2015-May-23 09:34N 51°20' E 004°20'0 0.0
2015-May-23 08:33N 51°20' E 004°20'0 0.0
2015-May-23 07:33N 51°20' E 004°20'1 0.5
2015-May-23 06:33N 51°19' E 004°20'0 0.0
2015-May-23 05:33N 51°19' E 004°20'1 0.5
2015-May-23 04:34N 51°19' E 004°19'4 3.9
2015-May-23 03:33N 51°23' E 004°16'4 4.1
2015-May-23 02:27N 51°27' E 004°14'0 0.3
2015-May-23 01:33N 51°27' E 004°14'0 0.0
2015-May-23 00:33N 51°27' E 004°14'0 0.0
2015-May-22 23:33N 51°27' E 004°14'8 7.4
2015-May-22 22:32N 51°35' E 004°13'7 6.9
2015-May-22 21:28N 51°40' E 004°21'9 4.8
2015-May-22 19:33N 51°43' E 004°36'8 6.9
2015-May-22 18:20N 51°48' E 004°46'18 9.3
2015-May-22 16:26N 51°49' E 005°15'17 9.1
2015-May-22 14:32N 51°54' E 005°42'5 5.0
2015-May-22 13:28N 51°52' E 005°50'0 0.0
2015-May-22 12:31N 51°52' E 005°50'0 0.0
2015-May-22 11:06N 51°52' E 005°50'0 0.0
2015-May-22 10:17N 51°52' E 005°50'0 0.0
2015-May-22 08:20N 51°52' E 005°50'0 0.0
2015-May-22 07:29N 51°52' E 005°50'0 0.0
2015-May-22 06:22N 51°52' E 005°50'0 0.0
2015-May-22 05:13N 51°52' E 005°50'0 0.0
2015-May-22 04:31N 51°52' E 005°50'0 0.0
2015-May-22 03:26N 51°52' E 005°50'0 0.0
2015-May-22 02:32N 51°52' E 005°50'0 0.0
2015-May-22 01:33N 51°52' E 005°50'47 5.9
2015-May-21 17:31N 51°19' E 006°44'20 6.4
2015-May-21 14:23N 51°01' E 006°58'7 7.6
2015-May-21 13:25N 50°54' E 007°02'107 7.1
2015-May-20 22:19N 49°23' E 008°30'6 7.3
2015-May-20 21:28N 49°17' E 008°27'9 9.3
2015-May-20 20:33N 49°09' E 008°22'1010.2
2015-May-20 19:33N 48°59' E 008°17'16 7.1
2015-May-20 17:19N 48°47' E 008°02'6 7.9
2015-May-20 16:33N 48°42' E 007°56'65 2.4
2015-May-19 13:12N 47°39' E 007°32'4 5.7
2015-May-19 12:34N 47°36' E 007°35'1 1.3
2015-May-19 11:33N 47°35' E 007°35'0 0.1
2015-May-19 10:30N 47°35' E 007°35'0 0.1
2015-May-19 09:33N 47°35' E 007°35'0 0.1
2015-May-19 08:33N 47°35' E 007°35'0 0.1
2015-May-19 07:33N 47°35' E 007°35'0 0.0
2015-May-19 06:33N 47°35' E 007°35'0 0.0
2015-May-19 05:33N 47°35' E 007°35'0 0.0
2015-May-19 04:32N 47°35' E 007°35'0 0.0
2015-May-19 03:33N 47°35' E 007°35'0 0.0
2015-May-19 02:33N 47°35' E 007°35'1 0.8
2015-May-19 01:33N 47°36' E 007°36'4 4.3
2015-May-19 00:33N 47°39' E 007°32'63 1.8
2015-May-17 12:28N 48°41' E 007°54'1 1.1
2015-May-17 11:33N 48°41' E 007°55'5 4.4
2015-May-17 10:29N 48°46' E 007°58'5 5.6
2015-May-17 09:33N 48°48' E 008°05'2 2.4
2015-May-17 08:33N 48°50' E 008°07'3 3.5
2015-May-17 07:33N 48°54' E 008°08'4 3.5
2015-May-17 06:33N 48°57' E 008°11'4 3.7
2015-May-17 05:33N 48°59' E 008°16'4 4.0
2015-May-17 04:33N 49°02' E 008°18'4 4.2
2015-May-17 03:34N 49°06' E 008°22'4 4.2
2015-May-17 02:33N 49°10' E 008°22'4 4.2
2015-May-17 01:33N 49°14' E 008°24'5 4.6
2015-May-17 00:33N 49°17' E 008°29'5 3.8
2015-May-16 23:18N 49°22' E 008°30'104 4.0
2015-May-15 21:20N 50°49' E 007°02'2 3.0
2015-May-15 20:33N 50°51' E 007°00'3 2.4
2015-May-15 19:30N 50°54' E 007°00'4 4.3
2015-May-15 18:32N 50°58' E 006°60'13 4.2
2015-May-15 15:27N 51°10' E 006°51'2 2.5
2015-May-15 14:33N 51°11' E 006°48'4 4.0
2015-May-15 13:33N 51°14' E 006°44'20 3.3
2015-May-15 07:33N 51°33' E 006°41'4 3.6
2015-May-15 06:33N 51°35' E 006°36'19 4.4
2015-May-15 02:14N 51°49' E 006°16'15 4.9
2015-May-14 23:06N 51°51' E 005°51'1 1.9
2015-May-14 22:32N 51°52' E 005°50'  

Dump ship's entire track history